Time;durP1;ratioP1;P1;durP2;ratioP2;P2;SDS_P1;SDS_P2;PMS_P1;PMS_P2;Temp;Humidity;BMP_temperature;BMP_pressure;BME280_temperature;BME280_humidity;BME280_pressure;Samples;Min_cycle;Max_cycle;Signal;HPM_P1;HPM_P2
2020/12/29 00:01:42;;;;;;;52.10;20.67;;;1.60;91.90;;;;;;5046381;28;20033;-67
2020/12/29 00:04:14;;;;;;;58.47;23.63;;;1.60;91.90;;;;;;5040769;28;20103;-68
2020/12/29 00:06:47;;;;;;;68.47;25.40;;;1.60;92.00;;;;;;5047177;28;20083;-68
2020/12/29 00:09:14;;;;;;;56.35;22.15;;;1.60;92.10;;;;;;5050617;28;20048;-68
2020/12/29 00:11:40;;;;;;;59.47;22.77;;;1.50;92.20;;;;;;5044417;28;20025;-67
2020/12/29 00:14:06;;;;;;;56.97;21.55;;;1.50;92.20;;;;;;5055056;28;20056;-67
2020/12/29 00:16:32;;;;;;;55.92;23.40;;;1.50;92.20;;;;;;5048144;28;20427;-68
2020/12/29 00:18:58;;;;;;;55.78;21.73;;;1.50;92.30;;;;;;5037723;28;20053;-68
2020/12/29 00:21:23;;;;;;;46.38;18.58;;;1.50;92.40;;;;;;5047857;28;20096;-68
2020/12/29 00:23:49;;;;;;;58.10;23.77;;;1.50;92.40;;;;;;5047715;28;20044;-81
2020/12/29 00:26:17;;;;;;;52.30;20.08;;;1.50;92.40;;;;;;5047457;28;20090;-68
2020/12/29 00:28:43;;;;;;;53.97;22.40;;;1.50;92.50;;;;;;5039724;28;20033;-67
2020/12/29 00:31:09;;;;;;;64.53;24.90;;;1.60;92.50;;;;;;5042490;28;20468;-67
2020/12/29 00:33:35;;;;;;;49.53;20.42;;;1.50;92.50;;;;;;5043058;28;20029;-68
2020/12/29 00:36:02;;;;;;;44.83;18.08;;;1.50;92.60;;;;;;5049014;28;20118;-69
2020/12/29 00:38:27;;;;;;;51.00;19.92;;;1.60;92.60;;;;;;5050095;28;20373;-70
2020/12/29 00:40:53;;;;;;;59.10;21.88;;;1.60;92.60;;;;;;5048371;28;20037;-69
2020/12/29 00:43:19;;;;;;;57.55;22.58;;;1.50;92.60;;;;;;5050038;28;20041;-68
2020/12/29 00:45:45;;;;;;;55.28;20.88;;;1.50;92.60;;;;;;5045211;28;20025;-68
2020/12/29 00:48:10;;;;;;;59.92;23.02;;;1.50;92.60;;;;;;5054868;28;20029;-68
2020/12/29 00:50:37;;;;;;;58.25;21.23;;;1.50;92.60;;;;;;5037353;28;20049;-69
2020/12/29 00:53:02;;;;;;;59.15;21.15;;;1.50;92.70;;;;;;5049164;28;20119;-69
2020/12/29 00:55:29;;;;;;;74.75;26.25;;;1.50;92.70;;;;;;5052145;28;20467;-68
2020/12/29 00:57:55;;;;;;;57.58;20.38;;;1.50;92.70;;;;;;5039935;28;20032;-69
2020/12/29 01:00:21;;;;;;;59.95;22.15;;;1.50;92.80;;;;;;5040841;28;20105;-69
2020/12/29 01:02:46;;;;;;;66.07;24.13;;;1.50;92.70;;;;;;5045001;28;20456;-69
2020/12/29 01:05:15;;;;;;;55.70;21.45;;;1.50;92.80;;;;;;5049111;28;20487;-69
2020/12/29 01:07:41;;;;;;;44.90;18.92;;;1.50;92.80;;;;;;5049326;28;20024;-68
2020/12/29 01:10:07;;;;;;;54.70;22.27;;;1.50;92.80;;;;;;5048648;28;20028;-69
2020/12/29 01:12:32;;;;;;;53.58;18.83;;;1.40;92.80;;;;;;5049650;28;20482;-69
2020/12/29 01:14:58;;;;;;;50.05;19.75;;;1.40;92.80;;;;;;5055309;28;20371;-69
2020/12/29 01:17:24;;;;;;;50.63;20.20;;;1.40;92.90;;;;;;5054327;28;20104;-69
2020/12/29 01:19:49;;;;;;;53.55;22.27;;;1.40;92.90;;;;;;5055390;28;20051;-85
2020/12/29 01:22:15;;;;;;;48.97;19.23;;;1.40;93.00;;;;;;5050408;28;20472;-70
2020/12/29 01:24:42;;;;;;;56.28;20.83;;;1.40;93.00;;;;;;5046698;28;20041;-69
2020/12/29 01:27:07;;;;;;;54.72;22.60;;;1.40;93.30;;;;;;5045328;28;20036;-69
2020/12/29 01:29:33;;;;;;;38.85;17.50;;;1.40;93.00;;;;;;5050340;28;20060;-69
2020/12/29 01:32:00;;;;;;;55.67;20.77;;;1.40;93.00;;;;;;5049483;28;20029;-69
2020/12/29 01:34:26;;;;;;;57.80;22.05;;;1.40;93.10;;;;;;5041627;28;20029;-70
2020/12/29 01:36:52;;;;;;;52.10;20.50;;;1.40;93.10;;;;;;5050747;28;20037;-68
2020/12/29 01:39:18;;;;;;;69.82;25.20;;;1.40;93.20;;;;;;5052947;28;20043;-69
2020/12/29 01:41:44;;;;;;;54.90;21.90;;;1.40;93.30;;;;;;5043291;28;20083;-69
2020/12/29 01:44:20;;;;;;;53.47;20.48;;;1.40;93.30;;;;;;5049332;28;20500;-68
2020/12/29 01:46:49;;;;;;;58.33;21.95;;;1.40;93.20;;;;;;5050710;28;20022;-69
2020/12/29 01:49:17;;;;;;;49.95;20.63;;;1.40;93.20;;;;;;5047698;28;20035;-69
2020/12/29 01:51:43;;;;;;;62.92;21.75;;;1.40;93.30;;;;;;5043481;28;20029;-69
2020/12/29 01:54:09;;;;;;;47.10;19.35;;;1.40;93.30;;;;;;5047531;28;20165;-69
2020/12/29 01:56:38;;;;;;;60.33;22.30;;;1.40;93.30;;;;;;5048430;28;20112;-68
2020/12/29 01:59:09;;;;;;;66.28;27.17;;;1.40;93.30;;;;;;5050491;28;20033;-68
2020/12/29 02:01:42;;;;;;;53.67;20.08;;;1.40;93.30;;;;;;5040570;28;20064;-72
2020/12/29 02:04:13;;;;;;;57.55;20.73;;;1.40;93.40;;;;;;5050127;28;20045;-68
2020/12/29 02:06:39;;;;;;;66.35;24.52;;;1.40;93.40;;;;;;5052730;28;20091;-68
2020/12/29 02:09:09;;;;;;;68.22;25.23;;;1.40;93.50;;;;;;5033281;28;20026;-68
2020/12/29 02:11:36;;;;;;;65.32;23.45;;;1.40;93.50;;;;;;5043323;28;20060;-68
2020/12/29 02:14:03;;;;;;;62.50;24.95;;;1.40;93.60;;;;;;5044865;28;20049;-68
2020/12/29 02:16:28;;;;;;;74.35;26.25;;;1.40;93.60;;;;;;5033982;28;20041;-68
2020/12/29 02:18:54;;;;;;;67.82;25.00;;;1.40;93.70;;;;;;5053259;28;20021;-70
2020/12/29 02:21:20;;;;;;;63.70;24.55;;;1.40;93.70;;;;;;5036056;28;20029;-69
2020/12/29 02:23:46;;;;;;;64.78;24.90;;;1.40;93.70;;;;;;5045143;28;20048;-68
2020/12/29 02:26:12;;;;;;;53.78;21.08;;;1.40;93.70;;;;;;5044648;28;20033;-68
2020/12/29 02:28:37;;;;;;;46.50;20.08;;;1.40;93.70;;;;;;5053119;28;20032;-69
2020/12/29 02:31:03;;;;;;;64.30;26.45;;;1.40;93.60;;;;;;5043925;28;20489;-66
2020/12/29 02:33:29;;;;;;;60.45;22.02;;;1.40;93.70;;;;;;5041371;28;20113;-69
2020/12/29 02:35:55;;;;;;;77.53;27.52;;;1.40;93.60;;;;;;5049157;28;20100;-69
2020/12/29 02:38:24;;;;;;;80.25;29.45;;;1.40;93.80;;;;;;5035458;28;20476;-69
2020/12/29 02:40:51;;;;;;;65.93;24.33;;;1.40;93.90;;;;;;5042714;28;20075;-69
2020/12/29 02:43:17;;;;;;;60.40;21.33;;;1.40;93.90;;;;;;5044198;28;20045;-69
2020/12/29 02:45:43;;;;;;;60.53;21.38;;;1.40;93.90;;;;;;5040191;28;20467;-69
2020/12/29 02:48:09;;;;;;;83.18;27.92;;;1.40;93.90;;;;;;5053819;28;20032;-69
2020/12/29 02:50:35;;;;;;;60.40;23.20;;;1.40;94.10;;;;;;5041820;28;20025;-69
2020/12/29 02:53:02;;;;;;;60.97;22.17;;;1.40;94.10;;;;;;5042095;28;20476;-69
2020/12/29 02:55:27;;;;;;;77.75;26.80;;;1.40;94.10;;;;;;5035396;28;20387;-70
2020/12/29 02:57:54;;;;;;;55.00;22.42;;;1.40;94.00;;;;;;5045638;28;20029;-68
2020/12/29 03:00:21;;;;;;;68.03;25.23;;;1.50;94.00;;;;;;5037869;28;20030;-71
2020/12/29 03:02:47;;;;;;;58.15;20.63;;;1.50;94.20;;;;;;5039351;28;20060;-72
2020/12/29 03:05:13;;;;;;;70.43;24.17;;;1.50;94.10;;;;;;5045165;28;20068;-69
2020/12/29 03:07:38;;;;;;;53.13;19.77;;;1.50;94.40;;;;;;5049497;28;20082;-68
2020/12/29 03:10:11;;;;;;;64.47;22.55;;;1.50;94.10;;;;;;5046991;28;20021;-71
2020/12/29 03:12:38;;;;;;;60.95;20.48;;;1.50;94.10;;;;;;5044799;28;20037;-68
2020/12/29 03:15:05;;;;;;;65.50;23.27;;;1.50;94.10;;;;;;5046086;28;20463;-70
2020/12/29 03:17:31;;;;;;;64.60;22.20;;;1.50;94.20;;;;;;5043851;28;20521;-68
2020/12/29 03:19:57;;;;;;;66.80;22.60;;;1.60;94.40;;;;;;5052549;28;20064;-68
2020/12/29 03:22:23;;;;;;;49.92;18.63;;;1.60;94.30;;;;;;5045933;28;20078;-68
2020/12/29 03:24:48;;;;;;;66.47;22.85;;;1.60;94.30;;;;;;5037220;28;20116;-68
2020/12/29 03:27:14;;;;;;;56.47;19.55;;;1.60;94.20;;;;;;5037197;28;20357;-68
2020/12/29 03:29:40;;;;;;;57.92;19.10;;;1.60;94.20;;;;;;5043223;28;20518;-67
2020/12/29 03:32:05;;;;;;;65.53;21.13;;;1.60;94.20;;;;;;5045968;28;20021;-67
2020/12/29 03:34:37;;;;;;;59.40;20.77;;;1.60;94.30;;;;;;5049028;28;20041;-68
2020/12/29 03:37:08;;;;;;;47.53;16.60;;;1.60;94.40;;;;;;5053805;28;20111;-68
2020/12/29 03:39:34;;;;;;;56.08;18.52;;;1.60;94.40;;;;;;5050240;28;20061;-67
2020/12/29 03:42:01;;;;;;;62.45;20.67;;;1.60;94.40;;;;;;5042905;28;20108;-68
2020/12/29 03:44:27;;;;;;;49.95;17.27;;;1.60;94.40;;;;;;5037984;28;20041;-71
2020/12/29 03:46:53;;;;;;;61.42;19.30;;;1.60;94.50;;;;;;5049474;28;20072;-68
2020/12/29 03:49:19;;;;;;;46.65;19.15;;;1.60;94.50;;;;;;5037983;28;20017;-66
2020/12/29 03:51:45;;;;;;;57.42;20.92;;;1.60;94.40;;;;;;5047880;28;20060;-68
2020/12/29 03:54:11;;;;;;;54.95;20.35;;;1.60;94.40;;;;;;5044767;28;20435;-70
2020/12/29 03:56:37;;;;;;;59.22;20.92;;;1.70;94.60;;;;;;5049614;28;20489;-68
2020/12/29 03:59:03;;;;;;;59.55;19.75;;;1.70;94.60;;;;;;5048279;28;20036;-70
2020/12/29 04:01:29;;;;;;;64.82;21.13;;;1.70;94.60;;;;;;5046484;28;20044;-68
2020/12/29 04:03:54;;;;;;;48.35;18.10;;;1.70;94.50;;;;;;5051165;28;20086;-68
2020/12/29 04:06:20;;;;;;;62.85;20.83;;;1.70;94.50;;;;;;5049020;28;20037;-65
2020/12/29 04:08:46;;;;;;;53.22;17.75;;;1.70;94.50;;;;;;5045760;28;20025;-72
2020/12/29 04:11:12;;;;;;;47.90;18.00;;;1.70;94.50;;;;;;5042300;28;20524;-72
2020/12/29 04:13:39;;;;;;;72.22;24.83;;;1.70;94.60;;;;;;5041885;28;20387;-72
2020/12/29 04:16:05;;;;;;;56.67;17.88;;;1.70;94.60;;;;;;5049277;28;20036;-71
2020/12/29 04:18:31;;;;;;;66.63;21.25;;;1.70;94.70;;;;;;5046647;28;20030;-72
2020/12/29 04:20:57;;;;;;;44.20;16.10;;;1.70;94.60;;;;;;5036059;28;20091;-72
2020/12/29 04:23:23;;;;;;;65.53;23.30;;;1.70;94.60;;;;;;5042638;28;20045;-73
2020/12/29 04:25:48;;;;;;;51.97;18.63;;;1.70;94.60;;;;;;5048507;28;20033;-72
2020/12/29 04:28:14;;;;;;;50.03;19.13;;;1.80;94.70;;;;;;5049366;28;20383;-74
2020/12/29 04:30:40;;;;;;;49.35;18.00;;;1.70;94.70;;;;;;5045346;28;20046;-74
2020/12/29 04:33:05;;;;;;;55.08;17.92;;;1.70;94.70;;;;;;5042045;28;20037;-73
2020/12/29 04:35:31;;;;;;;44.47;15.60;;;1.70;94.70;;;;;;5043337;28;20037;-74
2020/12/29 04:37:57;;;;;;;65.03;16.02;;;1.70;94.80;;;;;;5041168;28;20033;-74
2020/12/29 04:40:23;;;;;;;43.05;14.70;;;1.80;94.70;;;;;;5045942;28;20467;-72
2020/12/29 04:42:50;;;;;;;50.67;17.42;;;1.80;94.70;;;;;;5036820;28;20493;-73
2020/12/29 04:45:18;;;;;;;41.28;15.95;;;1.70;94.60;;;;;;5046329;28;20499;-73
2020/12/29 04:47:44;;;;;;;60.25;20.45;;;1.70;94.70;;;;;;5054509;28;20025;-71
2020/12/29 04:50:13;;;;;;;51.90;18.17;;;1.70;94.80;;;;;;5049913;28;20095;-68
2020/12/29 04:52:43;;;;;;;48.35;18.73;;;1.70;94.90;;;;;;5041381;28;20111;-66
2020/12/29 04:55:10;;;;;;;48.28;17.35;;;1.70;94.90;;;;;;5040719;28;20112;-66
2020/12/29 04:57:35;;;;;;;53.05;18.20;;;1.80;94.80;;;;;;5040019;28;20026;-66
2020/12/29 05:00:06;;;;;;;47.58;18.95;;;1.80;94.90;;;;;;5036206;28;20026;-66
2020/12/29 05:02:32;;;;;;;53.60;19.77;;;1.70;94.80;;;;;;5044144;28;20467;-66
2020/12/29 05:04:58;;;;;;;44.60;18.88;;;1.80;94.90;;;;;;5050606;28;20074;-66
2020/12/29 05:07:27;;;;;;;60.28;22.95;;;1.80;95.00;;;;;;5037601;28;20105;-65
2020/12/29 05:09:52;;;;;;;72.05;24.02;;;1.80;95.00;;;;;;5040342;28;20025;-65
2020/12/29 05:12:18;;;;;;;50.05;16.88;;;1.80;95.00;;;;;;5039082;28;20186;-67
2020/12/29 05:14:48;;;;;;;61.03;20.70;;;1.80;95.10;;;;;;5034276;28;20021;-67
2020/12/29 05:17:15;;;;;;;65.43;23.90;;;1.80;95.10;;;;;;5036615;28;20495;-65
2020/12/29 05:19:42;;;;;;;76.60;23.33;;;1.80;95.00;;;;;;5034292;28;20369;-66
2020/12/29 05:22:09;;;;;;;73.78;23.50;;;1.80;95.00;;;;;;5037138;28;20029;-67
2020/12/29 05:24:34;;;;;;;75.93;24.73;;;1.90;95.20;;;;;;5042427;28;20037;-65
2020/12/29 05:27:01;;;;;;;61.88;25.20;;;1.80;95.10;;;;;;5044250;28;20172;-66
2020/12/29 05:29:30;;;;;;;90.88;34.85;;;1.90;95.20;;;;;;5035990;28;20404;-65
2020/12/29 05:31:56;;;;;;;71.05;24.67;;;1.90;95.10;;;;;;5032581;28;20017;-66
2020/12/29 05:34:24;;;;;;;61.65;21.95;;;1.90;95.10;;;;;;5041322;28;20039;-66
2020/12/29 05:36:51;;;;;;;65.55;24.00;;;1.90;95.10;;;;;;5051921;28;20024;-66
2020/12/29 05:39:17;;;;;;;69.60;24.67;;;1.90;95.10;;;;;;5042683;28;20363;-67
2020/12/29 05:41:46;;;;;;;45.55;17.08;;;1.90;95.20;;;;;;5041727;28;20408;-64
2020/12/29 05:44:27;;;;;;;60.85;19.67;;;1.90;95.10;;;;;;5039868;28;20387;-64
2020/12/29 05:46:54;;;;;;;73.57;24.45;;;1.90;95.20;;;;;;5038067;28;20057;-65
2020/12/29 05:49:21;;;;;;;72.07;24.30;;;1.90;95.20;;;;;;5034265;28;20025;-65
2020/12/29 05:51:48;;;;;;;55.03;19.67;;;1.90;95.20;;;;;;5043651;28;20036;-66
2020/12/29 05:54:16;;;;;;;46.60;18.55;;;1.90;95.30;;;;;;5036573;28;20136;-68
2020/12/29 05:56:42;;;;;;;67.72;24.08;;;1.90;95.20;;;;;;5039313;28;20021;-65
2020/12/29 05:59:10;;;;;;;52.17;18.58;;;1.90;95.20;;;;;;5035579;28;20036;-64
2020/12/29 06:01:44;;;;;;;67.70;22.10;;;1.90;95.20;;;;;;5037026;28;20064;-66
2020/12/29 06:04:11;;;;;;;46.90;16.63;;;1.90;95.20;;;;;;5037407;28;20073;-66
2020/12/29 06:06:39;;;;;;;40.03;15.30;;;1.90;95.20;;;;;;5043670;28;20470;-66
2020/12/29 06:09:10;;;;;;;74.13;25.77;;;1.90;95.30;;;;;;5035654;28;20036;-66
2020/12/29 06:11:39;;;;;;;56.22;19.75;;;1.90;95.30;;;;;;5033841;28;20484;-67
2020/12/29 06:14:15;;;;;;;55.42;19.83;;;1.90;95.40;;;;;;5045309;28;20119;-65
2020/12/29 06:16:42;;;;;;;49.67;19.45;;;1.90;95.60;;;;;;5034571;28;20021;-70
2020/12/29 06:19:20;;;;;;;53.50;16.33;;;1.90;95.30;;;;;;5041731;28;20030;-65
2020/12/29 06:22:02;;;;;;;54.47;20.42;;;1.90;95.30;;;;;;5043143;28;20033;-65
2020/12/29 06:24:29;;;;;;;60.30;24.15;;;1.90;95.60;;;;;;5038155;28;20479;-66
2020/12/29 06:27:00;;;;;;;45.92;16.60;;;2.00;95.40;;;;;;5034185;28;20026;-67
2020/12/29 06:29:31;;;;;;;50.95;19.45;;;1.90;95.40;;;;;;5045289;28;20128;-68
2020/12/29 06:31:57;;;;;;;54.72;20.55;;;2.00;95.30;;;;;;5042056;28;20527;-65
2020/12/29 06:34:23;;;;;;;59.95;21.70;;;1.90;95.30;;;;;;5037681;28;20387;-71
2020/12/29 06:36:53;;;;;;;40.22;17.27;;;1.90;95.30;;;;;;5034286;28;20026;-66
2020/12/29 06:39:21;;;;;;;58.40;21.85;;;1.90;95.30;;;;;;5040209;28;20025;-68
2020/12/29 06:41:50;;;;;;;76.78;26.90;;;1.90;95.40;;;;;;5046726;28;20025;-68
2020/12/29 06:44:16;;;;;;;49.97;19.10;;;1.90;95.50;;;;;;5037806;28;20101;-67
2020/12/29 06:46:55;;;;;;;47.10;18.00;;;1.90;95.40;;;;;;5036058;28;20029;-73
2020/12/29 06:49:22;;;;;;;34.35;14.65;;;1.90;95.30;;;;;;5042388;28;20021;-67
2020/12/29 06:52:18;;;;;;;43.15;15.65;;;1.90;95.20;;;;;;5039623;28;20032;-68
2020/12/29 06:54:49;;;;;;;57.70;21.20;;;1.90;95.30;;;;;;5042234;28;20035;-69
2020/12/29 06:57:15;;;;;;;41.00;15.82;;;1.90;95.40;;;;;;5037156;28;20044;-70
2020/12/29 06:59:42;;;;;;;41.63;15.73;;;1.90;95.40;;;;;;5040824;28;20036;-68
2020/12/29 07:02:34;;;;;;;50.30;19.38;;;1.90;95.40;;;;;;5037109;28;20032;-68
2020/12/29 07:05:24;;;;;;;58.03;21.45;;;1.90;95.40;;;;;;5053129;28;20033;-68
2020/12/29 07:07:50;;;;;;;44.45;15.38;;;1.90;95.50;;;;;;5035716;28;20051;-69
2020/12/29 07:10:17;;;;;;;51.13;18.30;;;1.90;95.50;;;;;;5048101;28;20024;-68
2020/12/29 07:12:45;;;;;;;50.80;19.50;;;1.90;95.50;;;;;;5052922;28;20056;-69
2020/12/29 07:15:14;;;;;;;56.15;19.27;;;1.90;95.60;;;;;;5031779;28;20541;-68
2020/12/29 07:17:52;;;;;;;60.25;22.17;;;2.00;95.80;;;;;;5032991;28;20026;-68
2020/12/29 07:20:18;;;;;;;75.18;22.80;;;2.00;95.80;;;;;;5031913;28;20364;-68
2020/12/29 07:22:53;;;;;;;49.65;20.27;;;2.00;95.90;;;;;;5032967;28;20514;-68
2020/12/29 07:25:22;;;;;;;64.47;22.35;;;2.00;95.80;;;;;;5032131;28;20091;-68
2020/12/29 07:27:50;;;;;;;61.17;22.75;;;2.00;95.60;;;;;;5043925;28;20033;-68
2020/12/29 07:30:16;;;;;;;69.43;20.77;;;2.00;95.70;;;;;;5052974;28;20045;-67
2020/12/29 07:32:41;;;;;;;42.55;14.15;;;2.00;95.70;;;;;;5042597;28;20108;-67
2020/12/29 07:35:07;;;;;;;49.25;16.58;;;2.00;95.60;;;;;;5034875;28;20530;-68
2020/12/29 07:37:35;;;;;;;50.70;19.55;;;2.00;95.60;;;;;;5044667;28;20049;-68
2020/12/29 07:40:01;;;;;;;69.38;23.08;;;2.00;95.70;;;;;;5033055;28;20018;-68
2020/12/29 07:42:26;;;;;;;36.83;14.95;;;2.00;95.70;;;;;;5033441;28;20025;-68
2020/12/29 07:44:52;;;;;;;71.50;23.98;;;2.00;95.70;;;;;;5033499;28;20038;-67
2020/12/29 07:47:18;;;;;;;73.25;24.40;;;2.00;95.70;;;;;;5032876;28;20388;-68
2020/12/29 07:49:44;;;;;;;63.55;22.00;;;2.00;95.70;;;;;;5044071;28;20103;-67
2020/12/29 07:52:09;;;;;;;88.30;25.25;;;2.10;95.80;;;;;;5035731;28;20388;-68
2020/12/29 07:54:36;;;;;;;72.35;23.10;;;2.10;95.90;;;;;;5041863;28;20036;-68
2020/12/29 07:57:02;;;;;;;61.40;19.88;;;2.00;95.80;;;;;;5038897;28;20026;-68
2020/12/29 07:59:27;;;;;;;76.03;24.42;;;2.10;95.90;;;;;;5044347;28;20056;-68
2020/12/29 08:01:57;;;;;;;76.80;23.83;;;2.10;95.90;;;;;;5032664;28;20069;-68
2020/12/29 08:04:29;;;;;;;77.13;22.77;;;2.10;96.00;;;;;;5032661;28;20026;-68
2020/12/29 08:06:55;;;;;;;64.93;21.70;;;2.10;95.90;;;;;;5045127;28;20037;-68
2020/12/29 08:09:21;;;;;;;64.43;22.17;;;2.10;95.90;;;;;;5036183;28;20536;-68
2020/12/29 08:11:48;;;;;;;60.47;20.00;;;2.10;95.90;;;;;;5032870;28;20107;-68
2020/12/29 08:14:13;;;;;;;69.32;22.92;;;2.10;95.90;;;;;;5031377;28;20034;-69
2020/12/29 08:16:39;;;;;;;70.65;24.27;;;2.20;96.00;;;;;;5030941;28;20028;-68
2020/12/29 08:19:11;;;;;;;85.50;24.30;;;2.10;96.00;;;;;;5033162;28;20025;-68
2020/12/29 08:21:38;;;;;;;67.15;21.50;;;2.20;96.10;;;;;;5050386;28;20460;-68
2020/12/29 08:24:04;;;;;;;67.28;24.33;;;2.20;96.20;;;;;;5035984;28;20087;-68
2020/12/29 08:26:30;;;;;;;65.38;22.08;;;2.20;96.10;;;;;;5034886;28;20033;-69
2020/12/29 08:28:56;;;;;;;76.38;23.67;;;2.20;96.10;;;;;;5034842;28;20056;-67
2020/12/29 08:31:23;;;;;;;76.15;24.98;;;2.20;96.10;;;;;;5055023;28;20119;-69
2020/12/29 08:33:53;;;;;;;63.53;21.10;;;2.30;96.20;;;;;;5035021;28;20443;-75
2020/12/29 08:36:24;;;;;;;78.00;25.05;;;2.30;96.20;;;;;;5034722;28;20479;-68
2020/12/29 08:39:33;;;;;;;78.05;24.80;;;2.30;96.50;;;;;;5036100;28;20096;-70
2020/12/29 08:42:02;;;;;;;78.55;23.08;;;2.30;96.20;;;;;;5031130;28;20029;-68
2020/12/29 08:44:31;;;;;;;62.67;20.23;;;2.30;96.20;;;;;;5035891;28;20036;-68
2020/12/29 08:46:57;;;;;;;93.65;28.92;;;2.30;96.40;;;;;;5034302;28;20383;-69
2020/12/29 08:49:30;;;;;;;80.40;23.58;;;2.30;96.20;;;;;;5035771;28;20025;-68
2020/12/29 08:51:56;;;;;;;67.13;20.90;;;2.40;96.20;;;;;;5036684;28;20091;-68
2020/12/29 08:54:22;;;;;;;78.80;24.88;;;2.40;96.20;;;;;;5055699;28;20021;-68
2020/12/29 08:56:49;;;;;;;61.83;20.60;;;2.40;96.30;;;;;;5055606;28;20082;-68
2020/12/29 08:59:19;;;;;;;74.53;23.45;;;2.40;96.30;;;;;;5034883;28;20372;-69
2020/12/29 09:01:56;;;;;;;72.95;23.17;;;2.40;96.30;;;;;;5047549;28;20021;-68
2020/12/29 09:04:42;;;;;;;97.70;27.80;;;2.50;96.20;;;;;;5049874;28;20376;-69
2020/12/29 09:07:12;;;;;;;67.05;21.77;;;2.50;96.30;;;;;;5035661;28;20036;-70
2020/12/29 09:10:02;;;;;;;76.15;22.08;;;2.50;96.40;;;;;;5049970;28;20103;-69
2020/12/29 09:12:32;;;;;;;64.38;21.33;;;2.50;96.30;;;;;;5043386;28;20487;-69
2020/12/29 09:15:00;;;;;;;42.65;16.08;;;2.50;96.30;;;;;;5050764;28;20479;-68
2020/12/29 09:17:32;;;;;;;48.22;16.55;;;2.50;96.20;;;;;;5046385;28;20028;-68
2020/12/29 09:20:21;;;;;;;54.50;17.92;;;2.50;96.20;;;;;;5050342;28;20040;-70
2020/12/29 09:23:12;;;;;;;52.03;17.02;;;2.50;96.20;;;;;;5034269;28;20033;-69
2020/12/29 09:25:44;;;;;;;85.85;23.73;;;2.50;96.20;;;;;;5035104;28;20510;-68
2020/12/29 09:28:16;;;;;;;57.78;19.55;;;2.50;96.30;;;;;;5050511;28;20418;-67
2020/12/29 09:30:44;;;;;;;72.35;23.45;;;2.50;96.40;;;;;;5054467;28;20053;-68
2020/12/29 09:33:10;;;;;;;57.58;19.20;;;2.60;96.40;;;;;;5054798;28;20040;-69
2020/12/29 09:35:36;;;;;;;75.82;22.98;;;2.60;96.70;;;;;;5055039;28;20095;-69
2020/12/29 09:38:02;;;;;;;92.05;28.17;;;2.60;96.40;;;;;;5042642;28;20423;-69
2020/12/29 09:40:29;;;;;;;79.88;22.42;;;2.60;96.50;;;;;;5054317;28;20100;-67
2020/12/29 09:42:55;;;;;;;57.83;18.85;;;2.60;96.50;;;;;;5044933;28;20029;-67
2020/12/29 09:45:24;;;;;;;89.20;28.60;;;2.70;96.50;;;;;;5053351;28;20426;-68
2020/12/29 09:47:50;;;;;;;66.95;21.45;;;2.70;96.60;;;;;;5046015;28;20029;-72
2020/12/29 09:50:16;;;;;;;62.22;19.30;;;2.70;96.60;;;;;;5035121;28;20026;-69
2020/12/29 09:52:42;;;;;;;70.57;22.58;;;2.70;96.40;;;;;;5034850;28;20104;-68
2020/12/29 09:55:08;;;;;;;43.67;16.30;;;2.70;96.40;;;;;;5046837;28;20112;-67
2020/12/29 09:57:34;;;;;;;54.58;20.60;;;2.70;96.30;;;;;;5035062;28;20410;-70
2020/12/29 10:00:00;;;;;;;64.00;22.67;;;2.70;96.30;;;;;;5045565;28;20032;-67
2020/12/29 10:02:26;;;;;;;55.45;20.48;;;2.70;96.40;;;;;;5050613;28;20025;-67
2020/12/29 10:04:52;;;;;;;71.68;21.17;;;2.70;96.40;;;;;;5042572;28;20039;-68
2020/12/29 10:07:18;;;;;;;57.03;18.23;;;2.70;96.50;;;;;;5054007;28;20055;-68
2020/12/29 10:09:44;;;;;;;66.05;21.60;;;2.70;96.50;;;;;;5046854;28;20076;-68
2020/12/29 10:12:10;;;;;;;59.40;19.77;;;2.80;96.50;;;;;;5034255;28;20061;-69
2020/12/29 10:14:36;;;;;;;53.55;18.58;;;2.70;96.40;;;;;;5034071;28;20097;-68
2020/12/29 10:17:01;;;;;;;56.17;19.70;;;2.70;96.40;;;;;;5033943;28;20017;-68
2020/12/29 10:19:27;;;;;;;77.50;23.77;;;2.80;96.50;;;;;;5033050;28;20383;-68
2020/12/29 10:21:54;;;;;;;116.47;30.90;;;2.80;96.50;;;;;;5032502;28;20025;-68
2020/12/29 10:24:19;;;;;;;92.60;26.02;;;2.80;96.60;;;;;;5032830;28;20041;-69
2020/12/29 10:26:49;;;;;;;78.13;24.15;;;2.80;96.70;;;;;;5049082;28;20391;-69
2020/12/29 10:29:15;;;;;;;81.55;25.92;;;2.80;96.60;;;;;;5052334;28;20045;-68
2020/12/29 10:31:40;;;;;;;82.53;26.35;;;2.80;96.70;;;;;;5037186;28;20128;-68
2020/12/29 10:34:06;;;;;;;79.30;28.98;;;2.80;96.70;;;;;;5032360;28;20025;-67
2020/12/29 10:36:34;;;;;;;69.50;25.50;;;2.80;96.80;;;;;;5034130;28;20072;-69
2020/12/29 10:39:00;;;;;;;67.20;23.73;;;2.90;96.90;;;;;;5047247;28;20026;-68
2020/12/29 10:41:33;;;;;;;74.65;28.27;;;2.90;96.90;;;;;;5033612;28;20053;-70
2020/12/29 10:43:58;;;;;;;73.35;28.10;;;2.90;97.00;;;;;;5031268;28;20386;-68
2020/12/29 10:46:25;;;;;;;116.40;41.35;;;3.00;97.10;;;;;;5044372;28;20025;-68
2020/12/29 10:48:54;;;;;;;75.20;29.88;;;3.00;97.30;;;;;;5049671;28;20021;-69
2020/12/29 10:51:22;;;;;;;90.40;30.95;;;3.10;97.40;;;;;;5032246;28;20030;-68
2020/12/29 10:53:49;;;;;;;57.47;23.27;;;3.10;97.40;;;;;;5034382;28;20033;-69
2020/12/29 10:56:15;;;;;;;56.85;21.13;;;3.20;97.40;;;;;;5051991;28;20040;-69
2020/12/29 10:58:42;;;;;;;56.53;21.23;;;3.30;97.50;;;;;;5039157;28;20030;-69
2020/12/29 11:01:12;;;;;;;62.05;25.95;;;3.30;97.40;;;;;;5045255;28;20025;-69
2020/12/29 11:03:38;;;;;;;49.45;19.23;;;3.30;97.40;;;;;;5033824;28;20083;-69
2020/12/29 11:06:18;;;;;;;55.53;20.17;;;3.40;97.40;;;;;;5038286;28;20029;-69
2020/12/29 11:08:45;;;;;;;60.47;24.02;;;3.40;97.30;;;;;;5038362;28;20036;-69
2020/12/29 11:11:15;;;;;;;49.65;21.65;;;3.40;97.20;;;;;;5049070;28;20108;-69
2020/12/29 11:13:41;;;;;;;73.85;29.80;;;3.40;97.20;;;;;;5044946;28;20029;-67
2020/12/29 11:16:18;;;;;;;60.22;26.17;;;3.40;97.30;;;;;;5046953;28;20033;-68
2020/12/29 11:18:45;;;;;;;64.60;27.55;;;3.50;97.50;;;;;;5033280;28;20022;-67
2020/12/29 11:21:11;;;;;;;66.80;26.08;;;3.50;97.70;;;;;;5033282;28;20036;-68
2020/12/29 11:23:37;;;;;;;63.72;27.30;;;3.60;97.90;;;;;;5037704;28;20040;-68
2020/12/29 11:26:03;;;;;;;51.13;23.05;;;3.70;98.00;;;;;;5053025;28;20025;-69
2020/12/29 11:28:30;;;;;;;49.95;22.65;;;3.80;98.10;;;;;;5038890;28;20021;-69
2020/12/29 11:30:56;;;;;;;51.33;22.33;;;3.80;98.00;;;;;;5041458;28;20050;-68
2020/12/29 11:33:21;;;;;;;58.47;23.38;;;3.90;98.00;;;;;;5033076;28;20036;-69
2020/12/29 11:35:48;;;;;;;64.03;25.75;;;3.90;97.90;;;;;;5034497;28;20026;-69
2020/12/29 11:38:15;;;;;;;87.90;36.58;;;4.00;97.90;;;;;;5046775;28;20029;-68
2020/12/29 11:40:41;;;;;;;58.67;23.33;;;4.00;97.80;;;;;;5039601;28;20047;-69
2020/12/29 11:43:07;;;;;;;62.70;25.77;;;4.00;97.70;;;;;;5053260;28;20033;-69
2020/12/29 11:45:33;;;;;;;83.25;29.17;;;4.00;97.60;;;;;;5034091;28;20029;-68
2020/12/29 11:47:59;;;;;;;59.35;24.40;;;4.10;97.80;;;;;;5043112;28;20028;-69
2020/12/29 11:50:24;;;;;;;61.95;24.98;;;4.10;97.80;;;;;;5035986;28;20084;-69
2020/12/29 11:52:50;;;;;;;68.43;28.13;;;4.20;97.90;;;;;;5041163;28;20075;-69
2020/12/29 11:55:16;;;;;;;52.25;21.85;;;4.20;97.90;;;;;;5040780;28;20532;-69
2020/12/29 11:57:41;;;;;;;61.95;24.58;;;4.30;98.00;;;;;;5036669;28;20032;-69
2020/12/29 12:00:08;;;;;;;51.42;23.40;;;4.30;97.90;;;;;;5035025;28;20029;-68
2020/12/29 12:02:34;;;;;;;58.63;23.80;;;4.30;97.90;;;;;;5036573;28;20032;-69
2020/12/29 12:05:00;;;;;;;46.60;19.23;;;4.40;98.00;;;;;;5054910;28;20080;-68
2020/12/29 12:07:25;;;;;;;49.67;20.25;;;4.40;98.00;;;;;;5040804;28;20105;-69
2020/12/29 12:09:51;;;;;;;51.72;22.30;;;4.40;98.00;;;;;;5051092;28;20017;-69
2020/12/29 12:12:17;;;;;;;54.58;23.00;;;4.50;98.00;;;;;;5045693;28;20033;-68
2020/12/29 12:14:43;;;;;;;53.42;23.80;;;4.50;98.00;;;;;;5035279;28;20103;-69
2020/12/29 12:17:08;;;;;;;63.78;25.55;;;4.50;98.00;;;;;;5035010;28;20107;-69
2020/12/29 12:19:34;;;;;;;73.18;31.15;;;4.60;98.10;;;;;;5036815;28;20056;-69
2020/12/29 12:22:01;;;;;;;75.93;32.33;;;4.60;98.10;;;;;;5050164;28;20021;-68
2020/12/29 12:24:27;;;;;;;75.28;32.05;;;4.70;98.20;;;;;;5036300;28;20406;-69
2020/12/29 12:26:53;;;;;;;50.70;24.33;;;4.70;98.20;;;;;;5050129;28;20025;-69
2020/12/29 12:29:18;;;;;;;57.05;25.73;;;4.80;98.30;;;;;;5036058;28;20045;-69
2020/12/29 12:32:05;;;;;;;51.63;22.70;;;4.80;98.30;;;;;;5034772;28;20234;-71
2020/12/29 12:34:34;;;;;;;65.85;26.48;;;4.90;98.30;;;;;;5046776;28;20061;-69
2020/12/29 12:37:25;;;;;;;;;;;;;;;;;;;;;
2020/12/29 12:40:03;;;;;;;107.88;38.20;;;4.90;98.50;;;;;;5035799;28;20033;-69
2020/12/29 12:42:33;;;;;;;56.08;25.23;;;5.00;98.60;;;;;;5038460;28;20029;-69